createdAt,value
2022-09-20T00:01:40.914Z,9.37
2022-09-20T00:04:53.720Z,9.36
2022-09-20T00:08:05.732Z,9.37
2022-09-20T00:11:20.940Z,9.38
2022-09-20T00:14:33.264Z,9.42
2022-09-20T00:17:45.046Z,9.42
2022-09-20T00:20:58.461Z,9.44
2022-09-20T00:24:11.101Z,9.45
2022-09-20T00:27:23.284Z,9.45
2022-09-20T00:30:35.062Z,9.48
2022-09-20T00:34:01.814Z,9.49
2022-09-20T00:37:14.156Z,9.51
2022-09-20T00:40:28.941Z,9.53
2022-09-20T00:43:46.942Z,9.53
2022-09-20T00:46:59.388Z,9.56
2022-09-20T00:50:21.803Z,9.55
2022-09-20T00:53:38.382Z,9.58
2022-09-20T00:56:50.802Z,9.57
2022-09-20T01:00:02.858Z,9.60
2022-09-20T01:03:17.269Z,9.61
2022-09-20T01:06:30.858Z,9.62
2022-09-20T01:09:44.358Z,9.61
2022-09-20T01:12:58.427Z,9.60
2022-09-20T01:16:12.360Z,9.64
2022-09-20T01:19:29.840Z,9.65
2022-09-20T01:22:48.297Z,9.69
2022-09-20T01:26:28.772Z,9.69
2022-09-20T01:30:12.019Z,9.68
2022-09-20T01:33:31.082Z,9.67
2022-09-20T01:36:48.772Z,9.70
2022-09-20T01:40:10.796Z,9.73
2022-09-20T01:43:31.457Z,9.71
2022-09-20T01:46:47.953Z,9.75
2022-09-20T01:50:07.638Z,9.76
2022-09-20T01:53:59.749Z,9.76
2022-09-20T01:58:09.996Z,9.78
2022-09-20T02:02:13.039Z,9.80
2022-09-20T02:05:56.076Z,9.80
2022-09-20T02:09:46.153Z,9.82
2022-09-20T02:13:04.814Z,9.82
2022-09-20T02:16:51.717Z,9.83
2022-09-20T02:20:22.123Z,9.84
2022-09-20T02:23:48.367Z,9.84
2022-09-20T02:27:10.264Z,9.84
2022-09-20T02:30:37.188Z,9.83
2022-09-20T02:34:31.452Z,9.86
2022-09-20T02:38:40.770Z,9.84
2022-09-20T02:42:07.423Z,9.83
2022-09-20T02:45:25.050Z,9.83
2022-09-20T02:48:42.498Z,9.85
2022-09-20T02:51:59.515Z,9.84
2022-09-20T02:55:14.614Z,9.85
2022-09-20T02:58:43.228Z,9.83
2022-09-20T03:02:04.160Z,9.83
2022-09-20T03:05:24.345Z,9.83
2022-09-20T03:08:44.464Z,9.83
2022-09-20T03:12:05.123Z,9.86
2022-09-20T03:15:27.378Z,9.86
2022-09-20T03:18:48.026Z,9.88
2022-09-20T03:22:08.592Z,9.87
2022-09-20T03:25:49.446Z,9.86
2022-09-20T03:29:09.053Z,9.88
2022-09-20T03:32:33.091Z,9.89
2022-09-20T03:35:58.200Z,9.87
2022-09-20T03:39:34.442Z,9.87
2022-09-20T03:42:51.287Z,9.86
2022-09-20T03:46:22.588Z,9.84
2022-09-20T03:50:01.162Z,9.83
2022-09-20T03:53:40.020Z,9.84
2022-09-20T04:00:08.101Z,9.81
2022-09-20T04:03:38.850Z,9.81
2022-09-20T04:07:08.554Z,9.85
2022-09-20T04:10:40.834Z,9.85
2022-09-20T04:13:59.228Z,9.85
2022-09-20T04:17:21.475Z,9.86
2022-09-20T04:20:44.004Z,9.85
2022-09-20T04:24:03.716Z,9.83
2022-09-20T04:27:23.911Z,9.80
2022-09-20T04:30:42.050Z,9.82
2022-09-20T04:33:57.376Z,9.82
2022-09-20T04:37:31.481Z,9.81
2022-09-20T04:41:16.659Z,9.81
2022-09-20T04:45:08.867Z,9.80
2022-09-20T04:49:10.285Z,9.78
2022-09-20T04:52:55.218Z,9.79
2022-09-20T04:56:14.026Z,9.82
2022-09-20T04:59:34.242Z,9.81
2022-09-20T05:03:25.197Z,9.82
2022-09-20T05:06:57.336Z,9.87
2022-09-20T05:10:41.509Z,9.88
2022-09-20T05:14:18.426Z,9.89
2022-09-20T05:17:47.024Z,9.90
2022-09-20T05:21:15.063Z,9.88
2022-09-20T05:24:46.947Z,9.90
2022-09-20T05:28:06.116Z,9.91
2022-09-20T05:31:23.709Z,9.92
2022-09-20T05:34:42.398Z,9.95
2022-09-20T05:38:02.335Z,9.95
2022-09-20T05:41:23.821Z,9.98
2022-09-20T05:44:44.160Z,10.00
2022-09-20T05:48:03.632Z,10.01
2022-09-20T05:51:24.207Z,9.99
2022-09-20T05:55:18.273Z,9.99
2022-09-20T05:59:11.061Z,10.02
2022-09-20T06:02:35.067Z,10.01
2022-09-20T06:05:54.776Z,10.05
2022-09-20T06:09:41.531Z,10.04
2022-09-20T06:13:01.971Z,10.08
2022-09-20T06:16:22.774Z,10.11
2022-09-20T06:19:45.420Z,10.17
2022-09-20T06:23:00.805Z,10.20
2022-09-20T06:26:19.813Z,10.22
2022-09-20T06:29:37.188Z,10.23
2022-09-20T06:33:04.452Z,10.27
2022-09-20T06:54:28.094Z,10.27
2022-09-20T06:57:55.611Z,10.21
2022-09-20T07:01:11.955Z,10.21
2022-09-20T07:04:25.899Z,10.20
2022-09-20T07:37:32.779Z,10.97
2022-09-20T07:40:43.702Z,10.92
2022-09-20T07:43:57.289Z,10.94
2022-09-20T07:50:25.068Z,10.97
2022-09-20T07:56:52.948Z,11.06
2022-09-20T08:00:04.639Z,11.30
2022-09-20T08:03:18.261Z,11.37
2022-09-20T08:06:31.077Z,11.52
2022-09-20T08:09:42.678Z,11.62
2022-09-20T08:16:15.272Z,12.92
2022-09-20T08:19:28.881Z,13.63
2022-09-20T08:22:43.391Z,13.53
2022-09-20T08:25:54.996Z,13.24
2022-09-20T08:29:08.067Z,12.91
2022-09-20T08:32:19.839Z,12.63
2022-09-20T08:35:31.576Z,12.61
2022-09-20T08:42:02.922Z,12.69
2022-09-20T08:45:33.602Z,12.81
2022-09-20T08:48:38.309Z,12.82
2022-09-20T08:51:51.084Z,12.52
2022-09-20T08:55:08.044Z,12.26
2022-09-20T08:58:19.222Z,12.04
2022-09-20T09:01:33.553Z,12.08
2022-09-20T09:04:46.175Z,12.10
2022-09-20T09:07:58.506Z,12.40
2022-09-20T09:11:17.049Z,12.47
2022-09-20T09:14:54.364Z,12.52
2022-09-20T09:18:06.450Z,12.83
2022-09-20T09:21:25.780Z,13.29
2022-09-20T09:24:37.663Z,15.10
2022-09-20T09:28:01.323Z,14.50
2022-09-20T09:31:30.316Z,14.08
2022-09-20T09:34:42.415Z,14.45
2022-09-20T09:38:02.384Z,15.69
2022-09-20T09:41:29.844Z,17.31
2022-09-20T09:44:41.769Z,18.59
2022-09-20T09:47:53.613Z,19.11
2022-09-20T09:51:20.587Z,19.76
2022-09-20T09:54:36.103Z,20.75
2022-09-20T09:57:54.260Z,20.98
2022-09-20T10:01:11.175Z,20.22
2022-09-20T10:04:28.727Z,19.55
2022-09-20T10:07:45.772Z,18.39
2022-09-20T10:11:08.545Z,19.14
2022-09-20T10:14:33.751Z,18.19
2022-09-20T10:18:03.806Z,17.33
2022-09-20T10:21:26.315Z,16.25
2022-09-20T10:24:48.616Z,14.92
2022-09-20T10:28:11.706Z,14.23
2022-09-20T10:31:35.685Z,13.36
2022-09-20T10:35:18.381Z,12.66
2022-09-20T10:38:35.740Z,12.41
2022-09-20T10:42:13.966Z,12.48
2022-09-20T10:45:59.532Z,12.37
2022-09-20T10:48:49.271Z,12.03
2022-09-20T10:52:19.559Z,11.88
2022-09-20T10:55:46.530Z,11.85
2022-09-20T10:59:28.527Z,11.76
2022-09-20T11:02:53.574Z,11.69
2022-09-20T11:06:17.569Z,11.57
2022-09-20T11:09:33.953Z,11.63
2022-09-20T11:12:51.250Z,11.77
2022-09-20T11:16:09.805Z,11.86
2022-09-20T11:19:27.739Z,11.95
2022-09-20T11:22:48.237Z,13.12
2022-09-20T11:26:04.132Z,14.30
2022-09-20T11:29:23.980Z,14.86
2022-09-20T11:32:42.465Z,15.52
2022-09-20T11:35:59.573Z,16.04
2022-09-20T11:39:17.910Z,16.44
2022-09-20T11:42:34.969Z,16.84
2022-09-20T11:45:46.549Z,17.09
2022-09-20T11:49:03.776Z,17.73
2022-09-20T11:52:48.487Z,17.70
2022-09-20T11:56:05.204Z,17.05
2022-09-20T11:59:28.361Z,16.59
2022-09-20T12:02:45.224Z,16.69
2022-09-20T12:06:04.955Z,16.79
2022-09-20T12:09:32.544Z,17.32
2022-09-20T12:12:45.426Z,17.50
2022-09-20T12:16:06.712Z,17.49
2022-09-20T12:19:38.928Z,18.13
2022-09-20T12:22:50.643Z,17.52
2022-09-20T12:26:14.778Z,17.23
2022-09-20T12:30:20.159Z,17.58
2022-09-20T12:33:35.927Z,17.71
2022-09-20T12:36:50.264Z,18.00
2022-09-20T12:40:03.089Z,18.18
2022-09-20T12:43:25.501Z,18.00
2022-09-20T12:46:59.577Z,17.61
2022-09-20T12:50:34.437Z,17.46
2022-09-20T12:53:46.713Z,17.22
2022-09-20T12:56:58.787Z,17.11
2022-09-20T13:00:23.831Z,17.01
2022-09-20T13:03:39.223Z,17.31
2022-09-20T13:06:51.407Z,17.48
2022-09-20T13:10:03.662Z,17.05
2022-09-20T13:13:35.018Z,16.87
2022-09-20T13:16:56.763Z,16.82
2022-09-20T13:20:11.109Z,16.74
2022-09-20T13:23:30.442Z,16.74
2022-09-20T13:29:48.607Z,15.52
2022-09-20T13:33:00.660Z,14.84
2022-09-20T13:36:14.509Z,14.57
2022-09-20T13:39:41.246Z,14.50
2022-09-20T13:43:19.674Z,14.49
2022-09-20T13:46:17.240Z,14.50
2022-09-20T13:49:29.034Z,14.75
2022-09-20T13:52:50.760Z,15.00
2022-09-20T13:56:03.430Z,15.16
2022-09-20T14:02:27.438Z,14.89
2022-09-20T14:11:40.972Z,14.47
2022-09-20T14:14:54.957Z,14.31
2022-09-20T14:18:10.893Z,14.40
2022-09-20T14:21:28.519Z,14.49
2022-09-20T14:27:43.215Z,14.66
2022-09-20T14:30:55.297Z,14.69
2022-09-20T14:34:09.682Z,14.64
2022-09-20T14:37:26.862Z,14.57
2022-09-20T14:43:42.319Z,14.59
2022-09-20T14:46:54.673Z,14.54
2022-09-20T14:50:06.534Z,14.38
2022-09-20T14:53:38.391Z,14.31
2022-09-20T14:56:57.107Z,14.27
2022-09-20T15:00:15.206Z,14.09
2022-09-20T15:03:33.264Z,14.03
2022-09-20T15:06:46.110Z,13.91
2022-09-20T15:09:59.067Z,13.82
2022-09-20T15:13:12.718Z,13.78
2022-09-20T15:16:26.255Z,13.65
2022-09-20T15:19:40.664Z,13.53
2022-09-20T15:22:53.616Z,13.39
2022-09-20T15:26:05.922Z,13.30
2022-09-20T15:29:22.158Z,13.29
2022-09-20T15:32:33.760Z,13.17
2022-09-20T15:35:46.965Z,13.12
2022-09-20T15:39:00.956Z,13.03
2022-09-20T15:42:13.191Z,13.04
2022-09-20T15:45:27.301Z,13.13
2022-09-20T15:48:40.244Z,13.23
2022-09-20T15:51:52.964Z,13.29
2022-09-20T15:55:05.131Z,13.36
2022-09-20T15:58:17.212Z,13.35
2022-09-20T16:01:29.860Z,13.24
2022-09-20T16:04:41.914Z,13.12
2022-09-20T16:07:53.729Z,13.07
2022-09-20T16:11:06.891Z,13.07
2022-09-20T16:14:19.702Z,13.00
2022-09-20T16:17:43.299Z,12.89
2022-09-20T16:20:55.026Z,12.82
2022-09-20T16:24:08.050Z,12.72
2022-09-20T16:27:20.262Z,12.61
2022-09-20T16:30:33.082Z,12.48
2022-09-20T16:33:45.296Z,12.45
2022-09-20T16:36:59.879Z,12.38
2022-09-20T16:40:16.216Z,12.29
2022-09-20T16:43:29.894Z,12.24
2022-09-20T16:46:44.733Z,12.13
2022-09-20T16:49:58.434Z,12.05
2022-09-20T16:53:12.457Z,12.00
2022-09-20T16:56:31.122Z,11.99
2022-09-20T16:59:43.260Z,11.92
2022-09-20T17:02:56.197Z,11.78
2022-09-20T17:06:12.447Z,11.76
2022-09-20T17:09:25.556Z,11.76
2022-09-20T17:12:40.444Z,11.73
2022-09-20T17:15:53.647Z,11.71
2022-09-20T17:19:09.590Z,11.69
2022-09-20T17:22:22.913Z,11.66
2022-09-20T17:25:35.863Z,11.60
2022-09-20T17:28:51.504Z,11.61
2022-09-20T17:32:07.721Z,11.56
2022-09-20T17:35:20.026Z,11.50
2022-09-20T17:38:33.361Z,11.48
2022-09-20T17:41:47.595Z,11.43
2022-09-20T17:44:59.969Z,11.37
2022-09-20T17:48:11.902Z,11.38
2022-09-20T17:51:25.913Z,11.35
2022-09-20T17:54:37.611Z,11.33
2022-09-20T17:57:49.618Z,11.33
2022-09-20T18:01:12.764Z,11.28
2022-09-20T18:04:25.306Z,11.24
2022-09-20T18:07:37.134Z,11.21
2022-09-20T18:11:00.845Z,11.17
2022-09-20T18:14:14.553Z,11.15
2022-09-20T18:17:26.624Z,11.18
2022-09-20T18:20:38.308Z,11.19
2022-09-20T18:23:53.759Z,11.17
2022-09-20T18:27:06.270Z,11.16
2022-09-20T18:30:21.457Z,11.13
2022-09-20T18:33:38.258Z,11.10
2022-09-20T18:39:55.546Z,11.11
2022-09-20T18:43:11.177Z,11.12
2022-09-20T18:46:25.267Z,11.13
2022-09-20T18:49:38.409Z,11.09
2022-09-20T18:52:51.307Z,11.08
2022-09-20T18:56:19.552Z,11.07
2022-09-20T18:59:33.567Z,11.06
2022-09-20T19:03:09.454Z,11.04
2022-09-20T19:06:24.628Z,11.02
2022-09-20T19:09:45.686Z,11.00
2022-09-20T19:13:05.123Z,10.95
2022-09-20T19:16:38.534Z,10.89
2022-09-20T19:19:56.968Z,10.86
2022-09-20T19:23:25.828Z,10.85
2022-09-20T19:26:42.555Z,10.85
2022-09-20T19:29:56.090Z,10.83
2022-09-20T19:33:14.685Z,10.80
2022-09-20T19:36:38.808Z,10.76
2022-09-20T19:40:20.016Z,10.74
2022-09-20T19:44:01.298Z,10.70
2022-09-20T19:47:29.226Z,10.66
2022-09-20T19:50:48.454Z,10.57
2022-09-20T19:54:02.945Z,10.50
2022-09-20T19:57:21.771Z,10.44
2022-09-20T20:00:36.928Z,10.39
2022-09-20T20:03:50.638Z,10.35
2022-09-20T20:07:10.204Z,10.28
2022-09-20T20:10:30.456Z,10.18
2022-09-20T20:14:02.980Z,10.14
2022-09-20T20:17:28.314Z,10.10
2022-09-20T20:20:48.359Z,10.07
2022-09-20T20:24:15.633Z,10.06
2022-09-20T20:27:31.494Z,10.03
2022-09-20T20:30:43.461Z,10.04
2022-09-20T20:33:55.561Z,10.05
2022-09-20T20:37:07.504Z,10.05
2022-09-20T20:40:23.436Z,10.06
2022-09-20T20:43:36.171Z,10.05
2022-09-20T20:46:47.834Z,10.00
2022-09-20T20:49:59.869Z,10.00
2022-09-20T20:53:11.604Z,9.94
2022-09-20T20:56:26.429Z,9.93
2022-09-20T20:59:38.138Z,9.92
2022-09-20T21:02:50.212Z,9.91
2022-09-20T21:06:04.464Z,9.87
2022-09-20T21:09:17.336Z,9.85
2022-09-20T21:12:31.135Z,9.87
2022-09-20T21:15:43.321Z,9.89
2022-09-20T21:18:56.759Z,9.88
2022-09-20T21:22:09.708Z,9.91
2022-09-20T21:25:23.677Z,9.90
2022-09-20T21:28:40.118Z,9.88
2022-09-20T21:31:59.779Z,9.85
2022-09-20T21:35:14.527Z,9.87
2022-09-20T21:38:28.112Z,9.87
2022-09-20T21:41:42.345Z,9.88
2022-09-20T21:44:54.093Z,9.90
2022-09-20T21:48:07.936Z,9.90
2022-09-20T21:51:22.647Z,9.92
2022-09-20T21:54:34.499Z,9.96
2022-09-20T21:57:46.504Z,9.96
2022-09-20T22:01:06.357Z,9.96
2022-09-20T22:04:19.252Z,9.96
2022-09-20T22:07:31.017Z,9.94
2022-09-20T22:10:42.769Z,9.94
2022-09-20T22:13:56.581Z,9.97
2022-09-20T22:17:08.186Z,9.97
2022-09-20T22:20:20.280Z,9.97
2022-09-20T22:23:31.908Z,9.90
2022-09-20T22:26:46.158Z,9.94
2022-09-20T22:30:00.421Z,9.96
2022-09-20T22:33:12.287Z,9.90
2022-09-20T22:36:27.083Z,9.91
2022-09-20T22:39:38.805Z,9.90
2022-09-20T22:42:50.459Z,9.90
2022-09-20T22:46:10.682Z,9.84
2022-09-20T22:49:22.536Z,9.86
2022-09-20T22:52:34.180Z,9.83
2022-09-20T22:55:45.760Z,9.82
2022-09-20T22:59:00.259Z,9.81
2022-09-20T23:02:12.447Z,9.80
2022-09-20T23:05:24.414Z,9.79
2022-09-20T23:08:37.694Z,9.76
2022-09-20T23:11:50.660Z,9.52
2022-09-20T23:15:02.158Z,9.65
2022-09-20T23:18:16.095Z,9.63
2022-09-20T23:21:28.581Z,9.60
2022-09-20T23:24:40.458Z,9.59
2022-09-20T23:27:52.009Z,9.58
2022-09-20T23:31:09.076Z,9.57
2022-09-20T23:34:19.624Z,9.56
2022-09-20T23:37:31.194Z,9.55
2022-09-20T23:40:43.469Z,9.48
2022-09-20T23:43:55.846Z,9.52
2022-09-20T23:47:07.559Z,9.49
2022-09-20T23:50:19.215Z,9.51
2022-09-20T23:53:30.989Z,9.53
2022-09-20T23:56:42.851Z,9.50
2022-09-20T23:59:54.529Z,9.55
